Terminal Aerodrome Forecast
Issued by NWS Melbourne, FL

Home | Current Version | Previous Version | Text Only | Print | Product List | Glossary On
Versions: 1 2 3 4 5 6 7 8 9 10 11 12 13
851
FTUS42 KMLB 221907 AAA
TAFDAB
TAF AMD
KDAB 221907Z 2219/2318 05013KT P6SM FEW035 FEW180 FEW250
     FM230000 05011KT P6SM SCT060
     FM230300 04005KT P6SM SCT060 SCT250
     FM231400 05011KT P6SM SCT035=

USA.gov is the U.S. government's official web portal to all federal, state and local government web resources and services.